createdAt,value
2022-08-17T00:00:43.756Z,13.90
2022-08-17T00:03:22.538Z,14.05
2022-08-17T00:05:53.633Z,14.20
2022-08-17T00:08:28.248Z,14.48
2022-08-17T00:10:58.395Z,14.75
2022-08-17T00:13:37.750Z,14.68
2022-08-17T00:16:08.811Z,14.70
2022-08-17T00:19:06.830Z,15.10
2022-08-17T00:22:01.373Z,15.65
2022-08-17T00:24:23.055Z,14.57
2022-08-17T00:26:52.389Z,14.90
2022-08-17T00:29:20.326Z,14.20
2022-08-17T00:31:52.816Z,14.32
2022-08-17T00:34:20.750Z,14.82
2022-08-17T00:36:48.636Z,14.50
2022-08-17T00:39:18.356Z,15.65
2022-08-17T00:41:48.290Z,15.55
2022-08-17T00:44:17.597Z,16.10
2022-08-17T00:46:49.679Z,16.77
2022-08-17T00:49:25.727Z,15.50
2022-08-17T00:51:57.799Z,16.40
2022-08-17T00:54:34.223Z,16.35
2022-08-17T00:57:12.579Z,17.30
2022-08-17T01:00:01.627Z,17.55
2022-08-17T01:02:40.518Z,16.35
2022-08-17T01:05:19.812Z,17.38
2022-08-17T01:07:50.735Z,17.63
2022-08-17T01:10:59.223Z,17.55
2022-08-17T01:13:14.448Z,16.67
2022-08-17T01:15:53.820Z,17.10
2022-08-17T01:18:21.930Z,16.20
2022-08-17T01:20:54.518Z,16.23
2022-08-17T01:23:26.632Z,16.27
2022-08-17T01:25:58.616Z,15.25
2022-08-17T01:28:52.601Z,16.85
2022-08-17T01:31:21.199Z,17.48
2022-08-17T01:33:51.018Z,17.80
2022-08-17T01:36:21.095Z,18.20
2022-08-17T01:38:50.387Z,17.90
2022-08-17T01:41:20.429Z,17.37
2022-08-17T01:43:53.484Z,17.33
2022-08-17T01:46:28.916Z,17.30
2022-08-17T01:48:59.845Z,17.65
2022-08-17T01:51:34.400Z,17.20
2022-08-17T01:54:08.687Z,18.30
2022-08-17T01:56:42.884Z,18.58
2022-08-17T01:59:13.987Z,18.95
2022-08-17T02:01:45.768Z,17.73
2022-08-17T02:04:16.194Z,18.45
2022-08-17T02:06:52.753Z,18.35
2022-08-17T02:09:26.283Z,17.58
2022-08-17T02:12:00.082Z,18.48
2022-08-17T02:14:49.791Z,17.63
2022-08-17T02:17:19.705Z,18.90
2022-08-17T02:19:47.572Z,19.65
2022-08-17T02:22:20.126Z,18.17
2022-08-17T02:24:58.445Z,18.05
2022-08-17T02:27:31.588Z,19.35
2022-08-17T02:30:01.655Z,19.25
2022-08-17T02:32:29.508Z,18.58
2022-08-17T02:34:59.879Z,19.80
2022-08-17T02:40:00.703Z,19.58
2022-08-17T02:42:33.307Z,19.70
2022-08-17T02:45:03.932Z,20.40
2022-08-17T02:47:31.835Z,20.42
2022-08-17T02:50:01.591Z,19.33
2022-08-17T02:52:43.162Z,20.23
2022-08-17T02:55:18.868Z,20.70
2022-08-17T02:57:49.678Z,19.58
2022-08-17T03:00:23.114Z,22.55
2022-08-17T03:02:53.411Z,20.48
2022-08-17T03:07:55.460Z,21.92
2022-08-17T03:10:25.765Z,22.98
2022-08-17T03:15:27.982Z,24.65
2022-08-17T03:17:56.772Z,25.13
2022-08-17T03:20:27.965Z,26.17
2022-08-17T03:23:02.750Z,25.17
2022-08-17T03:25:34.695Z,24.70
2022-08-17T03:28:07.192Z,24.92
2022-08-17T03:30:35.684Z,24.23
2022-08-17T03:33:06.030Z,27.55
2022-08-17T03:38:10.172Z,26.88
2022-08-17T03:40:56.513Z,26.92
2022-08-17T03:43:32.325Z,27.98
2022-08-17T03:46:34.315Z,24.90
2022-08-17T03:49:24.852Z,26.33
2022-08-17T03:52:12.725Z,25.90
2022-08-17T03:55:01.056Z,23.40
2022-08-17T03:57:32.429Z,22.58
2022-08-17T04:00:02.374Z,24.33
2022-08-17T04:02:34.890Z,24.20
2022-08-17T04:05:02.846Z,24.83
2022-08-17T04:07:33.055Z,24.85
2022-08-17T04:10:03.193Z,25.30
2022-08-17T04:12:45.142Z,24.27
2022-08-17T04:15:17.804Z,23.17
2022-08-17T04:17:46.008Z,24.45
2022-08-17T04:20:15.857Z,21.45
2022-08-17T04:22:59.351Z,22.75
2022-08-17T04:25:28.333Z,20.98
2022-08-17T04:27:58.002Z,23.30
2022-08-17T04:30:27.018Z,23.23
2022-08-17T04:33:05.849Z,23.02
2022-08-17T04:35:43.164Z,22.60
2022-08-17T04:38:15.262Z,23.98
2022-08-17T04:41:04.776Z,24.02
2022-08-17T04:43:35.533Z,23.58
2022-08-17T04:46:11.069Z,24.42
2022-08-17T04:48:42.641Z,24.42
2022-08-17T04:51:16.770Z,23.70
2022-08-17T04:53:54.197Z,24.05
2022-08-17T04:56:28.216Z,24.58
2022-08-17T04:58:59.794Z,23.13
2022-08-17T05:01:33.081Z,23.95
2022-08-17T05:04:33.802Z,24.88
2022-08-17T05:06:57.874Z,25.88
2022-08-17T05:09:25.722Z,23.52
2022-08-17T05:11:56.260Z,24.08
2022-08-17T05:14:33.537Z,24.85
2022-08-17T05:17:07.176Z,24.50
2022-08-17T05:19:39.353Z,24.92
2022-08-17T05:22:09.341Z,23.95
2022-08-17T05:24:42.489Z,24.58
2022-08-17T05:27:18.904Z,22.77
2022-08-17T05:29:48.475Z,22.73
2022-08-17T05:32:39.624Z,24.63
2022-08-17T05:35:08.801Z,25.83
2022-08-17T05:37:40.958Z,23.77
2022-08-17T05:40:09.954Z,26.80
2022-08-17T05:42:37.801Z,24.75
2022-08-17T05:45:12.493Z,25.33
2022-08-17T05:47:41.279Z,25.45
2022-08-17T05:50:10.502Z,25.15
2022-08-17T05:52:56.435Z,25.20
2022-08-17T05:55:35.942Z,24.90
2022-08-17T05:58:20.461Z,23.13
2022-08-17T06:01:03.411Z,22.88
2022-08-17T06:03:46.009Z,21.67
2022-08-17T06:06:31.351Z,21.55
2022-08-17T06:09:13.405Z,20.10
2022-08-17T06:11:48.150Z,19.65
2022-08-17T06:14:46.301Z,19.80
2022-08-17T06:17:20.706Z,18.50
2022-08-17T06:19:55.066Z,18.23
2022-08-17T06:22:29.149Z,18.55
2022-08-17T06:25:03.455Z,18.08
2022-08-17T06:27:37.908Z,17.30
2022-08-17T06:30:09.998Z,17.90
2022-08-17T06:32:46.510Z,17.60
2022-08-17T06:35:18.876Z,18.10
2022-08-17T06:38:05.919Z,17.98
2022-08-17T06:40:57.273Z,17.00
2022-08-17T06:43:46.228Z,16.73
2022-08-17T06:46:23.010Z,17.67
2022-08-17T06:49:09.944Z,17.05
2022-08-17T06:51:41.472Z,17.50
2022-08-17T06:54:15.555Z,18.05
2022-08-17T06:56:53.089Z,18.25
2022-08-17T06:59:54.501Z,17.23
2022-08-17T07:02:29.120Z,16.30
2022-08-17T07:05:20.072Z,15.43
2022-08-17T07:08:04.269Z,15.82
2022-08-17T07:10:39.176Z,15.85
2022-08-17T07:13:35.095Z,16.38
2022-08-17T07:16:16.639Z,16.30
2022-08-17T07:18:45.143Z,16.30
2022-08-17T07:21:29.015Z,15.57
2022-08-17T07:24:12.096Z,15.68
2022-08-17T07:27:10.094Z,15.48
2022-08-17T07:29:44.019Z,14.98
2022-08-17T07:32:20.381Z,14.73
2022-08-17T07:35:21.077Z,14.55
2022-08-17T07:38:25.310Z,13.82
2022-08-17T07:41:03.747Z,13.85
2022-08-17T07:43:38.364Z,14.02
2022-08-17T07:46:33.319Z,13.38
2022-08-17T07:49:37.032Z,14.48
2022-08-17T07:52:24.111Z,13.43
2022-08-17T07:54:59.751Z,13.55
2022-08-17T07:57:32.429Z,12.20
2022-08-17T08:00:31.766Z,13.25
2022-08-17T08:05:52.282Z,12.93
2022-08-17T08:08:26.148Z,12.85
2022-08-17T08:11:03.573Z,12.50
2022-08-17T08:13:33.290Z,12.90
2022-08-17T08:16:26.084Z,12.45
2022-08-17T08:18:57.941Z,12.38
2022-08-17T08:21:39.590Z,12.13
2022-08-17T08:24:30.027Z,11.95
2022-08-17T08:27:12.534Z,12.45
2022-08-17T08:29:52.740Z,11.68
2022-08-17T08:32:28.693Z,11.40
2022-08-17T08:37:44.303Z,11.63
2022-08-17T08:40:31.520Z,11.32
2022-08-17T08:43:13.533Z,12.27
2022-08-17T08:45:50.931Z,12.10
2022-08-17T08:48:56.396Z,10.98
2022-08-17T08:51:27.867Z,11.88
2022-08-17T08:54:05.309Z,11.65
2022-08-17T08:56:38.298Z,11.55
2022-08-17T08:59:19.462Z,11.63
2022-08-17T09:02:02.181Z,11.82
2022-08-17T09:05:12.978Z,11.23
2022-08-17T09:07:48.058Z,12.32
2022-08-17T09:10:26.614Z,12.45
2022-08-17T09:13:09.939Z,11.88
2022-08-17T09:15:45.549Z,11.23
2022-08-17T09:19:03.100Z,11.10
2022-08-17T09:21:11.474Z,10.80
2022-08-17T09:23:44.868Z,12.25
2022-08-17T09:26:22.153Z,11.50
2022-08-17T09:28:52.902Z,11.60
2022-08-17T09:31:33.144Z,11.80
2022-08-17T09:34:04.567Z,11.55
2022-08-17T09:36:39.322Z,11.35
2022-08-17T09:39:12.057Z,10.68
2022-08-17T09:41:49.582Z,10.55
2022-08-17T09:44:27.336Z,10.85
2022-08-17T09:47:06.498Z,10.98
2022-08-17T09:49:39.323Z,10.27
2022-08-17T09:52:16.518Z,11.27
2022-08-17T09:54:47.450Z,11.95
2022-08-17T09:57:31.020Z,10.88
2022-08-17T10:00:17.042Z,9.95
2022-08-17T10:03:11.921Z,9.90
2022-08-17T10:05:46.373Z,9.95
2022-08-17T10:08:25.740Z,9.48
2022-08-17T10:11:06.959Z,9.68
2022-08-17T10:13:52.792Z,9.00
2022-08-17T10:16:30.539Z,9.38
2022-08-17T10:19:10.674Z,8.10
2022-08-17T10:22:00.787Z,8.63
2022-08-17T10:25:21.282Z,8.70
2022-08-17T10:27:48.985Z,8.25
2022-08-17T10:30:21.726Z,7.70
2022-08-17T10:32:55.377Z,7.95
2022-08-17T10:35:34.193Z,7.50
2022-08-17T10:38:34.151Z,7.68
2022-08-17T10:41:08.206Z,8.73
2022-08-17T10:44:37.398Z,9.95
2022-08-17T10:49:26.831Z,8.13
2022-08-17T10:51:57.886Z,8.13
2022-08-17T10:54:58.550Z,8.07
2022-08-17T10:57:42.177Z,7.70
2022-08-17T11:00:15.508Z,7.63
2022-08-17T11:02:52.066Z,7.10
2022-08-17T11:05:44.384Z,7.95
2022-08-17T11:08:44.873Z,7.85
2022-08-17T11:11:26.705Z,7.80
2022-08-17T11:14:15.936Z,8.13
2022-08-17T11:17:01.074Z,7.82
2022-08-17T11:19:56.294Z,7.50
2022-08-17T11:22:46.190Z,7.72
2022-08-17T11:25:20.241Z,7.35
2022-08-17T11:27:53.837Z,7.78
2022-08-17T11:30:50.481Z,7.63
2022-08-17T11:33:53.514Z,7.00
2022-08-17T11:37:02.565Z,7.43
2022-08-17T11:39:54.459Z,7.10
2022-08-17T11:42:38.779Z,7.15
2022-08-17T11:45:32.181Z,7.50
2022-08-17T11:48:33.686Z,7.13
2022-08-17T11:51:42.036Z,7.25
2022-08-17T11:54:32.156Z,7.65
2022-08-17T11:57:52.351Z,7.30
2022-08-17T12:00:56.471Z,8.15
2022-08-17T12:03:53.953Z,7.95
2022-08-17T12:06:32.189Z,6.93
2022-08-17T12:09:07.521Z,6.35
2022-08-17T12:11:58.731Z,6.07
2022-08-17T12:15:07.911Z,6.32
2022-08-17T12:17:52.275Z,6.05
2022-08-17T12:20:24.103Z,5.60
2022-08-17T12:23:04.585Z,6.18
2022-08-17T12:25:39.095Z,6.05
2022-08-17T12:28:29.928Z,5.53
2022-08-17T12:31:02.455Z,6.28
2022-08-17T12:33:39.015Z,5.10
2022-08-17T12:36:10.196Z,5.43
2022-08-17T12:38:39.245Z,5.38
2022-08-17T12:41:25.553Z,5.55
2022-08-17T12:44:01.720Z,5.38
2022-08-17T12:46:33.688Z,5.22
2022-08-17T12:49:25.627Z,5.13
2022-08-17T12:52:18.471Z,5.45
2022-08-17T12:54:56.223Z,4.68
2022-08-17T12:57:28.402Z,5.72
2022-08-17T13:00:02.248Z,5.20
2022-08-17T13:02:38.781Z,5.43
2022-08-17T13:05:21.442Z,5.55
2022-08-17T13:07:52.691Z,5.82
2022-08-17T13:10:32.137Z,5.50
2022-08-17T13:15:44.374Z,5.65
2022-08-17T13:18:39.293Z,5.45
2022-08-17T13:21:27.799Z,5.30
2022-08-17T13:23:59.018Z,5.00
2022-08-17T13:26:34.373Z,5.63
2022-08-17T13:29:05.876Z,5.45
2022-08-17T13:31:52.012Z,6.03
2022-08-17T13:35:08.961Z,5.63
2022-08-17T13:37:33.485Z,6.05
2022-08-17T13:40:08.076Z,5.70
2022-08-17T13:42:52.830Z,5.68
2022-08-17T13:45:39.662Z,5.50
2022-08-17T13:48:13.690Z,6.00
2022-08-17T13:50:46.919Z,5.28
2022-08-17T13:53:23.288Z,6.15
2022-08-17T13:55:57.237Z,5.63
2022-08-17T13:58:30.405Z,6.00
2022-08-17T14:00:58.567Z,6.40
2022-08-17T14:03:26.494Z,5.72
2022-08-17T14:05:54.558Z,6.40
2022-08-17T14:08:24.053Z,6.05
2022-08-17T14:10:59.335Z,6.15
2022-08-17T14:13:28.739Z,5.85
2022-08-17T14:15:56.869Z,6.20
2022-08-17T14:18:34.277Z,6.50
2022-08-17T14:21:15.118Z,6.45
2022-08-17T14:23:54.345Z,6.88
2022-08-17T14:28:56.462Z,6.20
2022-08-17T14:31:25.315Z,6.50
2022-08-17T14:33:53.729Z,6.90
2022-08-17T14:36:21.628Z,6.30
2022-08-17T14:38:51.024Z,6.68
2022-08-17T14:41:22.279Z,6.50
2022-08-17T14:43:53.973Z,6.45
2022-08-17T14:46:23.649Z,6.28
2022-08-17T14:48:57.213Z,6.32
2022-08-17T14:51:29.429Z,6.38
2022-08-17T14:53:58.847Z,6.22
2022-08-17T14:56:27.371Z,6.45
2022-08-17T14:58:59.926Z,6.53
2022-08-17T15:01:29.966Z,6.00
2022-08-17T15:03:57.789Z,6.82
2022-08-17T15:06:27.839Z,6.55
2022-08-17T15:08:59.146Z,6.95
2022-08-17T15:11:27.011Z,6.40
2022-08-17T15:13:57.179Z,7.30
2022-08-17T15:16:27.145Z,6.82
2022-08-17T15:21:23.287Z,7.35
2022-08-17T15:24:15.421Z,7.13
2022-08-17T15:26:45.179Z,6.68
2022-08-17T15:29:12.975Z,6.38
2022-08-17T15:31:43.001Z,6.35
2022-08-17T15:34:12.824Z,6.60
2022-08-17T15:36:49.164Z,6.63
2022-08-17T15:39:20.683Z,6.22
2022-08-17T15:41:58.597Z,5.97
2022-08-17T15:44:32.756Z,6.15
2022-08-17T15:47:03.016Z,6.20
2022-08-17T15:49:35.671Z,6.25
2022-08-17T15:52:16.899Z,5.65
2022-08-17T15:54:50.742Z,5.70
2022-08-17T15:57:19.090Z,5.60
2022-08-17T15:59:53.988Z,5.53
2022-08-17T16:03:13.944Z,5.65
2022-08-17T16:05:21.947Z,5.10
2022-08-17T16:07:55.118Z,5.45
2022-08-17T16:10:34.575Z,5.15
2022-08-17T16:13:05.239Z,5.55
2022-08-17T16:15:45.254Z,5.35
2022-08-17T16:18:19.191Z,5.38
2022-08-17T16:20:49.288Z,5.18
2022-08-17T16:23:20.182Z,5.63
2022-08-17T16:25:53.617Z,5.55
2022-08-17T16:28:36.286Z,5.88
2022-08-17T16:31:08.073Z,5.40
2022-08-17T16:33:37.415Z,5.43
2022-08-17T16:36:05.623Z,5.40
2022-08-17T16:38:35.752Z,5.80
2022-08-17T16:41:05.719Z,5.75
2022-08-17T16:46:05.886Z,6.00
2022-08-17T16:48:33.733Z,5.70
2022-08-17T16:51:04.325Z,5.97
2022-08-17T16:53:39.147Z,5.68
2022-08-17T16:56:08.409Z,6.07
2022-08-17T16:58:37.660Z,5.93
2022-08-17T17:01:12.145Z,5.65
2022-08-17T17:03:43.886Z,5.78
2022-08-17T17:06:19.461Z,5.80
2022-08-17T17:08:53.109Z,5.95
2022-08-17T17:11:35.949Z,6.85
2022-08-17T17:14:07.140Z,6.40
2022-08-17T17:16:45.828Z,5.93
2022-08-17T17:19:34.680Z,6.85
2022-08-17T17:22:13.039Z,6.80
2022-08-17T17:24:52.702Z,6.35
2022-08-17T17:27:33.074Z,7.03
2022-08-17T17:30:08.948Z,6.80
2022-08-17T17:32:40.844Z,6.50
2022-08-17T17:35:12.877Z,6.68
2022-08-17T17:37:45.733Z,6.68
2022-08-17T17:40:19.100Z,6.88
2022-08-17T17:42:49.826Z,6.68
2022-08-17T17:45:23.952Z,7.07
2022-08-17T17:47:52.368Z,6.57
2022-08-17T17:50:27.050Z,7.28
2022-08-17T17:53:02.750Z,7.18
2022-08-17T17:55:48.851Z,6.72
2022-08-17T17:58:35.722Z,6.93
2022-08-17T18:01:20.335Z,6.97
2022-08-17T18:03:59.155Z,6.70
2022-08-17T18:06:39.767Z,6.70
2022-08-17T18:09:23.911Z,6.88
2022-08-17T18:12:09.215Z,6.78
2022-08-17T18:14:52.823Z,6.38
2022-08-17T18:17:20.631Z,6.80
2022-08-17T18:19:50.787Z,6.78
2022-08-17T18:22:23.601Z,6.70
2022-08-17T18:24:55.914Z,6.25
2022-08-17T18:27:28.534Z,7.03
2022-08-17T18:29:59.548Z,6.97
2022-08-17T18:32:39.017Z,6.95
2022-08-17T18:35:32.584Z,7.05
2022-08-17T18:38:25.149Z,7.00
2022-08-17T18:41:03.872Z,7.10
2022-08-17T18:43:52.787Z,7.22
2022-08-17T18:46:30.155Z,7.30
2022-08-17T18:49:03.503Z,7.50
2022-08-17T18:51:40.953Z,6.88
2022-08-17T18:54:21.498Z,7.25
2022-08-17T18:56:54.902Z,7.20
2022-08-17T18:59:30.124Z,7.38
2022-08-17T19:05:14.520Z,7.88
2022-08-17T19:07:46.731Z,7.50
2022-08-17T19:10:27.183Z,7.72
2022-08-17T19:13:12.406Z,7.78
2022-08-17T19:15:46.979Z,8.18
2022-08-17T19:18:41.640Z,8.15
2022-08-17T19:21:16.564Z,8.32
2022-08-17T19:23:53.800Z,8.15
2022-08-17T19:26:53.853Z,8.98
2022-08-17T19:29:25.760Z,8.57
2022-08-17T19:31:55.400Z,8.73
2022-08-17T19:34:30.167Z,8.85
2022-08-17T19:37:09.051Z,9.73
2022-08-17T19:39:47.853Z,9.88
2022-08-17T19:42:36.102Z,8.95
2022-08-17T19:45:14.107Z,8.90
2022-08-17T19:47:55.125Z,9.80
2022-08-17T19:50:38.427Z,9.52
2022-08-17T19:53:18.688Z,9.35
2022-08-17T19:55:56.721Z,9.90
2022-08-17T19:58:37.534Z,10.50
2022-08-17T20:01:08.792Z,10.57
2022-08-17T20:03:53.283Z,10.13
2022-08-17T20:06:24.020Z,10.65
2022-08-17T20:08:59.959Z,10.27
2022-08-17T20:11:35.311Z,11.10
2022-08-17T20:14:11.414Z,10.82
2022-08-17T20:16:39.295Z,10.98
2022-08-17T20:19:15.728Z,10.45
2022-08-17T20:21:53.784Z,11.35
2022-08-17T20:24:31.706Z,11.77
2022-08-17T20:27:13.693Z,11.23
2022-08-17T20:30:05.858Z,11.60
2022-08-17T20:32:50.177Z,12.48
2022-08-17T20:35:28.805Z,11.68
2022-08-17T20:38:03.990Z,11.85
2022-08-17T20:40:40.422Z,11.82
2022-08-17T20:43:49.054Z,10.98
2022-08-17T20:46:29.520Z,11.40
2022-08-17T20:49:01.075Z,11.45
2022-08-17T20:51:35.087Z,12.07
2022-08-17T20:54:36.647Z,12.02
2022-08-17T20:57:06.094Z,12.23
2022-08-17T21:00:01.275Z,12.13
2022-08-17T21:02:30.096Z,11.50
2022-08-17T21:05:15.909Z,11.52
2022-08-17T21:07:56.641Z,12.43
2022-08-17T21:10:38.784Z,12.82
2022-08-17T21:13:44.261Z,13.60
2022-08-17T21:16:40.186Z,12.77
2022-08-17T21:19:31.244Z,12.68
2022-08-17T21:22:13.452Z,13.18
2022-08-17T21:24:54.199Z,13.60
2022-08-17T21:27:35.758Z,13.40
2022-08-17T21:30:24.923Z,13.20
2022-08-17T21:33:20.258Z,13.93
2022-08-17T21:35:58.684Z,14.80
2022-08-17T21:38:35.524Z,14.20
2022-08-17T21:41:08.151Z,14.40
2022-08-17T21:43:38.011Z,14.07
2022-08-17T21:46:15.416Z,15.15
2022-08-17T21:48:45.760Z,15.45
2022-08-17T21:51:23.465Z,15.55
2022-08-17T21:53:53.565Z,15.80
2022-08-17T21:56:27.874Z,16.63
2022-08-17T21:59:00.765Z,17.05
2022-08-17T22:01:37.280Z,17.95
2022-08-17T22:04:19.016Z,16.48
2022-08-17T22:06:57.263Z,16.35
2022-08-17T22:09:28.482Z,16.92
2022-08-17T22:12:04.188Z,16.48
2022-08-17T22:14:51.470Z,16.42
2022-08-17T22:17:27.881Z,16.13
2022-08-17T22:19:59.191Z,16.30
2022-08-17T22:22:37.066Z,16.88
2022-08-17T22:25:07.239Z,17.50
2022-08-17T22:27:56.113Z,17.85
2022-08-17T22:30:34.865Z,17.10
2022-08-17T22:33:38.118Z,17.45
2022-08-17T22:36:12.062Z,16.60
2022-08-17T22:38:43.851Z,16.48
2022-08-17T22:41:32.052Z,15.55
2022-08-17T22:44:09.336Z,16.83
2022-08-17T22:46:42.501Z,16.83
2022-08-17T22:49:14.001Z,16.98
2022-08-17T22:51:41.834Z,17.45
2022-08-17T22:54:39.079Z,18.00
2022-08-17T22:57:32.149Z,17.23
2022-08-17T23:00:05.517Z,16.88
2022-08-17T23:02:35.477Z,17.58
2022-08-17T23:05:27.363Z,16.45
2022-08-17T23:07:55.188Z,18.05
2022-08-17T23:10:23.037Z,16.80
2022-08-17T23:12:55.161Z,17.58
2022-08-17T23:15:23.423Z,17.63
2022-08-17T23:17:51.576Z,17.15
2022-08-17T23:20:24.973Z,16.92
2022-08-17T23:22:53.179Z,17.83
2022-08-17T23:25:31.810Z,18.20
2022-08-17T23:28:02.359Z,17.13
2022-08-17T23:30:36.600Z,17.90
2022-08-17T23:33:08.482Z,18.08
2022-08-17T23:35:41.393Z,17.38
2022-08-17T23:38:10.193Z,17.83
2022-08-17T23:40:39.717Z,18.10
2022-08-17T23:43:24.705Z,18.25
2022-08-17T23:45:57.540Z,18.20
2022-08-17T23:48:35.715Z,18.75
2022-08-17T23:51:09.102Z,19.23
2022-08-17T23:53:46.189Z,19.67
2022-08-17T23:56:14.436Z,20.33
2022-08-17T23:58:44.795Z,20.23
